Terminal Aerodrome Forecast
Issued by NWS Pueblo, CO

Home | Current Version | Previous Version | Text Only | Print | Product List | Glossary On
Versions: 1 2 3 4 5 6 7 8 9 10 11 12 13 14 15 16 17 18 19 20 21 22 23 24 25 26 27 28 29 30 31
000
FTUS45 KPUB 211126
TAFALS
TAF
KALS 211126Z 2112/2212 VRB04KT P6SM SCT010 SCT080
     FM211500 VRB06KT P6SM SCT100
     FM211700 VRB06KT P6SM BKN120
     FM212000 21009KT P6SM VCSH SCT080 BKN110
     FM220300 18007KT P6SM VCSH SCT080 BKN120
     FM220900 VRB03KT P6SM SCT120=

USA.gov is the U.S. government's official web portal to all federal, state and local government web resources and services.